Time;durP1;ratioP1;P1;durP2;ratioP2;P2;SDS_P1;SDS_P2;PMS_P1;PMS_P2;Temp;Humidity;BMP_temperature;BMP_pressure;BME280_temperature;BME280_humidity;BME280_pressure;Samples;Min_cycle;Max_cycle;Signal;HPM_P1;HPM_P2
2021/11/28 00:01:10;;;;;;;3.90;3.60;;;4.70;99.90;;;;;;5036718;28;20267;-68
2021/11/28 00:03:38;;;;;;;4.22;3.92;;;4.60;99.90;;;;;;5035161;28;20842;-67
2021/11/28 00:06:08;;;;;;;3.75;3.55;;;4.50;99.90;;;;;;5038326;28;20309;-68
2021/11/28 00:09:00;;;;;;;3.00;2.90;;;4.40;99.90;;;;;;5032213;28;20228;-67
2021/11/28 00:11:29;;;;;;;2.95;2.83;;;4.30;99.90;;;;;;5033644;28;20227;-68
2021/11/28 00:14:09;;;;;;;2.85;2.75;;;4.20;99.90;;;;;;5038266;28;20264;-66
2021/11/28 00:16:36;;;;;;;2.67;2.53;;;4.20;99.90;;;;;;5034620;28;20266;-68
2021/11/28 00:19:05;;;;;;;2.70;2.60;;;4.20;99.90;;;;;;5033247;28;22318;-68
2021/11/28 00:21:33;;;;;;;2.60;2.50;;;4.30;99.90;;;;;;5034889;28;20227;-68
2021/11/28 00:24:01;;;;;;;2.40;2.30;;;4.30;99.90;;;;;;5039623;28;20226;-68
2021/11/28 00:26:29;;;;;;;2.50;2.40;;;4.30;99.90;;;;;;5034781;28;20315;-69
2021/11/28 00:28:58;;;;;;;2.33;2.22;;;4.40;99.90;;;;;;5032415;28;20234;-71
2021/11/28 00:31:26;;;;;;;2.95;2.75;;;4.30;99.90;;;;;;5037196;28;20708;-68
2021/11/28 00:33:53;;;;;;;2.38;2.28;;;4.30;99.90;;;;;;5036192;28;20692;-68
2021/11/28 00:36:20;;;;;;;2.50;2.40;;;4.20;99.90;;;;;;5037787;28;20250;-67
2021/11/28 00:38:47;;;;;;;2.40;2.30;;;4.20;99.90;;;;;;5037948;28;20704;-68
2021/11/28 00:41:15;;;;;;;2.60;2.50;;;4.20;99.90;;;;;;5035542;28;20294;-65
2021/11/28 00:46:19;;;;;;;2.30;2.10;;;4.20;99.90;;;;;;5034030;23;20229;-75
2021/11/28 00:48:46;;;;;;;2.55;2.45;;;4.20;99.90;;;;;;5031690;28;20704;-75
2021/11/28 00:51:34;;;;;;;2.35;2.25;;;4.10;99.90;;;;;;5031900;28;20231;-75
2021/11/28 00:54:02;;;;;;;2.50;2.40;;;4.10;99.90;;;;;;5032605;28;20237;-75
2021/11/28 00:56:29;;;;;;;2.22;2.13;;;4.10;99.90;;;;;;5042122;28;20233;-75
2021/11/28 00:58:56;;;;;;;2.15;2.05;;;4.10;99.90;;;;;;5039135;28;20234;-75
2021/11/28 01:01:26;;;;;;;2.50;2.40;;;4.00;99.90;;;;;;5041036;28;20570;-75
2021/11/28 01:03:53;;;;;;;2.28;2.17;;;4.00;99.90;;;;;;5039744;28;20303;-75
2021/11/28 01:06:21;;;;;;;2.38;2.28;;;4.00;99.90;;;;;;5039844;28;20233;-75
2021/11/28 01:08:48;;;;;;;2.05;1.98;;;4.00;99.90;;;;;;5039633;28;20222;-75
2021/11/28 01:11:15;;;;;;;2.58;2.47;;;3.90;99.90;;;;;;5040283;28;20234;-76
2021/11/28 01:13:42;;;;;;;2.45;2.35;;;3.90;99.90;;;;;;5040458;28;20226;-75
2021/11/28 01:16:10;;;;;;;1.98;1.95;;;3.80;99.90;;;;;;5036535;28;20223;-75
2021/11/28 01:18:39;;;;;;;2.40;2.30;;;3.80;99.90;;;;;;5037867;28;20231;-75
2021/11/28 01:21:07;;;;;;;2.60;2.50;;;3.80;99.90;;;;;;5034321;28;20233;-76
2021/11/28 01:23:35;;;;;;;2.70;2.60;;;3.80;99.90;;;;;;5034682;28;20700;-76
2021/11/28 01:26:02;;;;;;;2.75;2.65;;;3.70;99.90;;;;;;5037112;28;20217;-75
2021/11/28 01:28:30;;;;;;;2.72;2.63;;;3.80;99.90;;;;;;5040724;28;20230;-75
2021/11/28 01:30:57;;;;;;;2.65;2.55;;;3.80;99.90;;;;;;5034047;28;20231;-75
2021/11/28 01:33:24;;;;;;;2.70;2.60;;;3.80;99.90;;;;;;5038439;28;20234;-75
2021/11/28 01:35:53;;;;;;;2.45;2.35;;;3.80;99.90;;;;;;5041189;28;20242;-76
2021/11/28 01:38:20;;;;;;;2.80;2.70;;;3.70;99.90;;;;;;5040345;28;20234;-75
2021/11/28 01:40:48;;;;;;;2.55;2.45;;;3.70;99.90;;;;;;5039326;28;20318;-76
2021/11/28 01:43:16;;;;;;;2.80;2.70;;;3.70;99.90;;;;;;5038310;28;20238;-76
2021/11/28 01:45:45;;;;;;;2.70;2.50;;;3.70;99.90;;;;;;5039620;28;20705;-75
2021/11/28 01:48:14;;;;;;;3.55;3.25;;;3.60;99.90;;;;;;5033406;28;20223;-76
2021/11/28 01:50:44;;;;;;;5.43;3.50;;;3.60;99.90;;;;;;5035227;28;20228;-75
2021/11/28 01:53:17;;;;;;;7.55;4.30;;;3.60;99.90;;;;;;5045593;28;20256;-75
2021/11/28 01:55:45;;;;;;;5.53;4.00;;;3.60;99.90;;;;;;5039601;28;20728;-75
2021/11/28 01:58:13;;;;;;;5.15;4.28;;;3.60;99.90;;;;;;5039653;28;20747;-75
2021/11/28 02:00:45;;;;;;;8.55;5.57;;;3.50;99.90;;;;;;5039169;28;20644;-75
2021/11/28 02:03:12;;;;;;;8.18;5.45;;;3.50;99.90;;;;;;5040799;28;20239;-75
2021/11/28 02:05:42;;;;;;;8.90;4.80;;;3.50;99.90;;;;;;5034494;28;20219;-75
2021/11/28 02:08:09;;;;;;;8.90;5.10;;;3.50;99.90;;;;;;5015965;28;20234;-75
2021/11/28 02:10:38;;;;;;;9.02;5.38;;;3.50;99.90;;;;;;5042453;28;20237;-75
2021/11/28 02:13:06;;;;;;;8.63;5.45;;;3.50;99.90;;;;;;5044412;28;20610;-75
2021/11/28 02:15:34;;;;;;;8.73;5.55;;;3.60;99.90;;;;;;5039452;28;20223;-75
2021/11/28 02:18:01;;;;;;;8.90;5.18;;;3.60;99.90;;;;;;5044883;28;20237;-75
2021/11/28 02:20:31;;;;;;;10.45;5.25;;;3.60;99.90;;;;;;5042721;28;20222;-75
2021/11/28 02:23:00;;;;;;;7.35;4.38;;;3.60;99.90;;;;;;5041539;28;20223;-75
2021/11/28 02:25:29;;;;;;;5.75;4.13;;;3.60;99.90;;;;;;5043550;28;20231;-75
2021/11/28 02:27:57;;;;;;;4.20;3.65;;;3.60;99.90;;;;;;5047540;28;20233;-75
2021/11/28 02:30:26;;;;;;;3.97;3.03;;;3.60;99.90;;;;;;5039886;28;20582;-75
2021/11/28 02:32:54;;;;;;;2.90;2.70;;;3.60;99.90;;;;;;5040611;28;20230;-75
2021/11/28 02:35:21;;;;;;;2.85;2.65;;;3.60;99.90;;;;;;5043711;28;20234;-75
2021/11/28 02:37:49;;;;;;;2.90;2.70;;;3.60;99.90;;;;;;5041414;28;20230;-75
2021/11/28 02:40:20;;;;;;;2.67;2.47;;;3.50;99.90;;;;;;5041707;28;20709;-75
2021/11/28 02:42:49;;;;;;;2.72;2.63;;;3.50;99.90;;;;;;5045842;28;20226;-75
2021/11/28 02:45:19;;;;;;;2.45;2.35;;;3.50;99.90;;;;;;5043387;28;20233;-75
2021/11/28 02:47:46;;;;;;;2.60;2.50;;;3.50;99.90;;;;;;5043048;28;20222;-75
2021/11/28 02:50:17;;;;;;;2.33;2.22;;;3.50;99.90;;;;;;5045488;28;20218;-75
2021/11/28 02:52:52;;;;;;;2.42;2.33;;;3.40;99.90;;;;;;5013685;28;20241;-75
2021/11/28 02:55:22;;;;;;;2.53;2.33;;;3.40;99.90;;;;;;5041443;28;20214;-75
2021/11/28 02:57:49;;;;;;;2.47;2.38;;;3.40;99.90;;;;;;5040480;28;20627;-75
2021/11/28 03:00:18;;;;;;;2.50;2.40;;;3.40;99.90;;;;;;5042771;28;20233;-75
2021/11/28 03:02:45;;;;;;;2.70;2.60;;;3.40;99.90;;;;;;5038050;28;20313;-75
2021/11/28 03:05:13;;;;;;;2.63;2.53;;;3.30;99.90;;;;;;5040792;28;20241;-75
2021/11/28 03:07:41;;;;;;;2.63;2.53;;;3.30;99.90;;;;;;5043788;28;20226;-75
2021/11/28 03:10:31;;;;;;;2.75;2.65;;;3.30;99.90;;;;;;5041441;28;20337;-76
2021/11/28 03:12:59;;;;;;;5.57;2.88;;;3.40;99.90;;;;;;5037823;28;20222;-76
2021/11/28 03:15:27;;;;;;;2.80;2.70;;;3.40;99.90;;;;;;5039123;28;20218;-76
2021/11/28 03:17:55;;;;;;;2.35;2.25;;;3.40;99.90;;;;;;5040294;28;20225;-75
2021/11/28 03:20:22;;;;;;;2.90;2.80;;;3.40;99.90;;;;;;5040547;28;20307;-75
2021/11/28 03:22:51;;;;;;;2.58;2.47;;;3.40;99.90;;;;;;5042220;28;20234;-75
2021/11/28 03:25:20;;;;;;;2.80;2.70;;;3.20;99.90;;;;;;5039077;28;20250;-75
2021/11/28 03:27:49;;;;;;;2.88;2.78;;;3.10;99.90;;;;;;5041621;28;20588;-75
2021/11/28 03:30:18;;;;;;;3.05;2.95;;;3.00;99.90;;;;;;5040927;28;20227;-76
2021/11/28 03:32:46;;;;;;;2.90;2.80;;;2.90;99.90;;;;;;5043484;28;20232;-75
2021/11/28 03:35:13;;;;;;;2.70;2.60;;;2.80;99.90;;;;;;5044282;28;20223;-75
2021/11/28 03:37:40;;;;;;;2.90;2.80;;;2.80;99.90;;;;;;5044432;28;20218;-75
2021/11/28 03:40:09;;;;;;;3.10;3.00;;;2.80;99.90;;;;;;5040327;28;20249;-75
2021/11/28 03:42:37;;;;;;;3.00;2.80;;;2.90;99.90;;;;;;5044377;28;20230;-75
2021/11/28 03:45:08;;;;;;;2.97;2.88;;;2.80;99.90;;;;;;5043997;28;20238;-75
2021/11/28 03:47:38;;;;;;;2.88;2.78;;;2.80;99.90;;;;;;5039686;28;20709;-75
2021/11/28 03:50:06;;;;;;;2.80;2.70;;;2.80;99.90;;;;;;5038801;28;20239;-75
2021/11/28 03:52:34;;;;;;;2.70;2.60;;;2.80;99.90;;;;;;5037958;28;20234;-75
2021/11/28 03:55:01;;;;;;;2.17;2.08;;;2.70;99.90;;;;;;5043916;28;20728;-75
2021/11/28 03:57:29;;;;;;;2.35;2.25;;;2.60;99.90;;;;;;5041504;28;20222;-75
2021/11/28 03:59:56;;;;;;;2.20;2.13;;;2.50;99.90;;;;;;5039364;28;20251;-75
2021/11/28 04:02:25;;;;;;;2.22;2.13;;;2.30;99.90;;;;;;5040731;28;20270;-75
2021/11/28 04:04:52;;;;;;;2.67;2.58;;;2.20;99.90;;;;;;5040655;28;20218;-75
2021/11/28 04:07:19;;;;;;;2.67;2.58;;;2.10;99.90;;;;;;5040058;28;20715;-75
2021/11/28 04:09:48;;;;;;;2.67;2.58;;;2.10;99.90;;;;;;5042997;28;20826;-75
2021/11/28 04:12:15;;;;;;;3.03;2.92;;;2.10;99.90;;;;;;5039884;28;20565;-76
2021/11/28 04:14:43;;;;;;;2.40;2.30;;;2.10;99.90;;;;;;5039991;28;20224;-76
2021/11/28 04:17:10;;;;;;;2.40;2.30;;;2.20;99.90;;;;;;5040446;28;20226;-75
2021/11/28 04:19:39;;;;;;;2.88;2.78;;;2.20;99.90;;;;;;5040882;28;20558;-75
2021/11/28 04:22:06;;;;;;;2.63;2.53;;;2.20;99.90;;;;;;5040165;28;20255;-76
2021/11/28 04:24:33;;;;;;;2.53;2.42;;;2.20;99.90;;;;;;5037919;28;20707;-75
2021/11/28 04:27:00;;;;;;;2.47;2.38;;;2.20;99.90;;;;;;5043997;28;20226;-75
2021/11/28 04:29:28;;;;;;;2.92;2.83;;;2.30;99.90;;;;;;5037240;28;20225;-76
2021/11/28 04:31:55;;;;;;;2.83;2.72;;;2.30;99.90;;;;;;5041488;28;20234;-76
2021/11/28 04:34:22;;;;;;;2.95;2.75;;;2.30;99.90;;;;;;5043083;28;20223;-75
2021/11/28 04:36:50;;;;;;;3.15;3.05;;;2.30;99.90;;;;;;5040825;28;20237;-76
2021/11/28 04:39:18;;;;;;;2.80;2.70;;;2.30;99.90;;;;;;5034210;28;20255;-75
2021/11/28 04:41:47;;;;;;;2.50;2.40;;;2.30;99.90;;;;;;5037975;28;20235;-75
2021/11/28 04:44:15;;;;;;;2.72;2.63;;;2.40;99.90;;;;;;5040264;28;20288;-76
2021/11/28 04:46:43;;;;;;;2.50;2.40;;;2.40;99.90;;;;;;5039560;28;20250;-76
2021/11/28 04:49:10;;;;;;;2.70;2.60;;;2.40;99.90;;;;;;5039747;28;20231;-75
2021/11/28 04:51:37;;;;;;;2.72;2.63;;;2.30;99.90;;;;;;5036719;28;20229;-75
2021/11/28 04:54:06;;;;;;;2.75;2.65;;;2.30;99.90;;;;;;5041035;28;20218;-75
2021/11/28 04:56:33;;;;;;;2.50;2.40;;;2.20;99.90;;;;;;5041065;28;20219;-76
2021/11/28 04:59:00;;;;;;;2.40;2.30;;;2.20;99.90;;;;;;5038286;28;20226;-76
2021/11/28 05:01:27;;;;;;;2.50;2.40;;;2.10;99.90;;;;;;5035263;28;20226;-75
2021/11/28 05:03:54;;;;;;;2.50;2.40;;;2.20;99.90;;;;;;5037064;28;20226;-75
2021/11/28 05:06:22;;;;;;;2.70;2.60;;;2.20;99.90;;;;;;5043506;28;20309;-75
2021/11/28 05:08:49;;;;;;;2.33;2.22;;;2.10;99.90;;;;;;5035544;28;20227;-75
2021/11/28 05:11:18;;;;;;;2.60;2.50;;;2.10;99.90;;;;;;5035152;28;20227;-75
2021/11/28 05:13:45;;;;;;;2.50;2.40;;;2.10;99.90;;;;;;5038094;28;20234;-75
2021/11/28 05:16:12;;;;;;;2.40;2.30;;;2.00;99.90;;;;;;5040438;28;20226;-75
2021/11/28 05:18:39;;;;;;;2.67;2.58;;;2.00;99.90;;;;;;5037682;28;20219;-75
2021/11/28 05:21:07;;;;;;;2.88;2.78;;;1.90;99.90;;;;;;5037327;28;20901;-75
2021/11/28 05:23:34;;;;;;;2.60;2.50;;;2.00;99.90;;;;;;5037583;28;20237;-75
2021/11/28 05:26:01;;;;;;;2.53;2.42;;;1.90;99.90;;;;;;5035790;28;20622;-75
2021/11/28 05:28:29;;;;;;;2.55;2.45;;;1.90;99.90;;;;;;5041495;28;20235;-75
2021/11/28 05:30:57;;;;;;;2.72;2.63;;;1.90;99.90;;;;;;5038692;28;20739;-75
2021/11/28 05:33:24;;;;;;;2.60;2.50;;;1.80;99.90;;;;;;5039137;28;20226;-75
2021/11/28 05:35:51;;;;;;;2.65;2.55;;;1.80;99.90;;;;;;5041314;28;20234;-75
2021/11/28 05:38:18;;;;;;;2.38;2.28;;;1.80;99.90;;;;;;5038743;28;20223;-75
2021/11/28 05:40:45;;;;;;;2.55;2.45;;;1.90;99.90;;;;;;5043953;28;20625;-76
2021/11/28 05:43:12;;;;;;;2.78;2.67;;;2.00;99.90;;;;;;5046636;28;20226;-75
2021/11/28 05:45:41;;;;;;;2.92;2.83;;;2.10;99.90;;;;;;5042165;28;20253;-75
2021/11/28 05:48:08;;;;;;;2.60;2.50;;;2.20;99.90;;;;;;5043234;28;20237;-75
2021/11/28 05:50:35;;;;;;;2.83;2.72;;;2.20;99.90;;;;;;5038678;28;20230;-75
2021/11/28 05:53:02;;;;;;;2.60;2.50;;;2.20;99.90;;;;;;5043459;28;20222;-75
2021/11/28 05:55:29;;;;;;;2.90;2.80;;;2.20;99.90;;;;;;5040490;28;20693;-75
2021/11/28 05:57:57;;;;;;;3.70;3.50;;;2.20;99.90;;;;;;5043618;28;20215;-75
2021/11/28 06:00:26;;;;;;;3.67;3.40;;;2.30;99.90;;;;;;5041408;28;21212;-75
2021/11/28 06:02:56;;;;;;;3.33;3.13;;;2.30;99.90;;;;;;5041711;28;20229;-75
2021/11/28 06:05:23;;;;;;;3.38;3.17;;;2.40;99.90;;;;;;5042418;28;20298;-75
2021/11/28 06:07:50;;;;;;;3.47;3.28;;;2.30;99.90;;;;;;5043753;28;20599;-75
2021/11/28 06:10:18;;;;;;;3.65;3.45;;;2.30;99.90;;;;;;5038620;28;20447;-75
2021/11/28 06:12:45;;;;;;;3.10;3.00;;;2.30;99.90;;;;;;5037336;28;20230;-75
2021/11/28 06:15:12;;;;;;;3.08;2.97;;;2.30;99.90;;;;;;5042439;28;20442;-75
2021/11/28 06:17:39;;;;;;;2.95;2.85;;;2.30;99.90;;;;;;5010950;28;20233;-75
2021/11/28 06:20:09;;;;;;;2.70;2.60;;;2.20;99.90;;;;;;5042167;28;20623;-76
2021/11/28 06:22:37;;;;;;;2.80;2.70;;;2.10;99.90;;;;;;5040176;28;20227;-76
2021/11/28 06:25:05;;;;;;;2.92;2.83;;;2.10;99.90;;;;;;5040468;28;20231;-75
2021/11/28 06:27:33;;;;;;;2.95;2.85;;;2.10;99.90;;;;;;5046243;28;20296;-75
2021/11/28 06:30:00;;;;;;;2.95;2.85;;;2.10;99.90;;;;;;5041146;28;20225;-75
2021/11/28 06:32:27;;;;;;;2.50;2.40;;;2.20;99.90;;;;;;5041612;28;20237;-76
2021/11/28 06:34:54;;;;;;;3.10;3.00;;;2.20;99.90;;;;;;5038856;28;20214;-75
2021/11/28 06:37:23;;;;;;;2.65;2.55;;;2.20;99.90;;;;;;5042004;28;20235;-75
2021/11/28 06:39:50;;;;;;;3.00;2.90;;;2.20;99.90;;;;;;5036852;28;20253;-76
2021/11/28 06:42:18;;;;;;;3.05;2.95;;;2.20;99.90;;;;;;5039500;28;20313;-75
2021/11/28 06:44:45;;;;;;;2.80;2.70;;;2.30;99.90;;;;;;5038807;28;20237;-75
2021/11/28 06:47:13;;;;;;;2.90;2.80;;;2.20;99.90;;;;;;5039165;28;20230;-76
2021/11/28 06:49:41;;;;;;;2.55;2.45;;;2.20;99.90;;;;;;5039785;28;20230;-75
2021/11/28 06:52:08;;;;;;;2.60;2.50;;;2.30;99.90;;;;;;5035584;28;20230;-75
2021/11/28 06:54:37;;;;;;;2.85;2.75;;;2.30;99.90;;;;;;5042506;28;20231;-76
2021/11/28 06:57:04;;;;;;;3.17;2.97;;;2.30;99.90;;;;;;5045042;28;20592;-76
2021/11/28 06:59:32;;;;;;;2.58;2.47;;;2.30;99.90;;;;;;5042314;28;20230;-76
2021/11/28 07:01:59;;;;;;;2.80;2.70;;;2.30;99.90;;;;;;5038349;28;20763;-76
2021/11/28 07:04:26;;;;;;;3.10;3.00;;;2.40;99.90;;;;;;5041820;28;20222;-75
2021/11/28 07:06:53;;;;;;;2.85;2.75;;;2.40;99.90;;;;;;5041949;28;20226;-75
2021/11/28 07:09:21;;;;;;;2.90;2.80;;;2.40;99.90;;;;;;5035620;28;20235;-75
2021/11/28 07:11:50;;;;;;;3.03;2.92;;;2.50;99.90;;;;;;5038064;28;20218;-75
2021/11/28 07:14:18;;;;;;;3.15;3.05;;;2.50;99.90;;;;;;5043838;28;20242;-75
2021/11/28 07:16:46;;;;;;;3.05;2.95;;;2.60;99.90;;;;;;5039726;28;20230;-75
2021/11/28 07:19:13;;;;;;;2.53;2.42;;;2.60;99.90;;;;;;5038345;28;20221;-75
2021/11/28 07:21:40;;;;;;;3.92;3.72;;;2.60;99.90;;;;;;5036293;28;20230;-75
2021/11/28 07:24:07;;;;;;;3.72;3.53;;;2.60;99.90;;;;;;5041900;28;20222;-75
2021/11/28 07:26:34;;;;;;;3.20;3.10;;;2.70;99.90;;;;;;5038305;28;20231;-75
2021/11/28 07:29:03;;;;;;;2.97;2.88;;;2.70;99.90;;;;;;5024969;28;20227;-75
2021/11/28 07:31:30;;;;;;;3.22;3.13;;;2.70;99.90;;;;;;5029444;28;20218;-76
2021/11/28 07:33:59;;;;;;;2.88;2.78;;;2.80;99.90;;;;;;5030010;28;20229;-75
2021/11/28 07:36:26;;;;;;;3.10;3.00;;;2.80;99.90;;;;;;5036255;28;20218;-75
2021/11/28 07:38:53;;;;;;;3.38;3.17;;;2.80;99.90;;;;;;5029686;28;20227;-76
2021/11/28 07:41:21;;;;;;;4.50;4.20;;;2.70;99.90;;;;;;5032045;28;20234;-75
2021/11/28 07:43:48;;;;;;;4.38;4.13;;;2.70;99.90;;;;;;5029573;28;20238;-76
2021/11/28 07:46:17;;;;;;;4.05;3.80;;;2.70;99.90;;;;;;5031795;28;20226;-75
2021/11/28 07:48:44;;;;;;;3.67;3.47;;;2.80;99.90;;;;;;5031521;28;22023;-75
2021/11/28 07:51:11;;;;;;;3.63;3.42;;;2.90;99.90;;;;;;5028882;28;20231;-76
2021/11/28 07:53:39;;;;;;;3.40;3.20;;;2.90;99.90;;;;;;5031026;28;20222;-75
2021/11/28 07:56:06;;;;;;;3.70;3.50;;;3.00;99.90;;;;;;5029469;28;20935;-75
2021/11/28 07:58:34;;;;;;;3.35;3.15;;;3.10;99.90;;;;;;5031498;28;20226;-76
2021/11/28 08:01:01;;;;;;;3.28;3.10;;;3.20;99.90;;;;;;5028005;28;20224;-75
2021/11/28 08:03:30;;;;;;;2.95;2.85;;;3.30;99.90;;;;;;5028814;28;20283;-75
2021/11/28 08:05:58;;;;;;;3.30;3.10;;;3.40;99.90;;;;;;5030491;28;20611;-76
2021/11/28 08:08:28;;;;;;;3.33;3.22;;;3.40;99.90;;;;;;5027986;28;20223;-75
2021/11/28 08:10:55;;;;;;;3.17;3.00;;;3.50;99.90;;;;;;5033234;28;20226;-75
2021/11/28 08:13:23;;;;;;;2.85;2.75;;;3.50;99.90;;;;;;5029506;28;20226;-76
2021/11/28 08:15:50;;;;;;;3.25;3.13;;;3.50;99.90;;;;;;5031268;28;20238;-77
2021/11/28 08:18:17;;;;;;;3.25;3.15;;;3.60;99.90;;;;;;5026255;28;20219;-75
2021/11/28 08:20:46;;;;;;;3.17;2.97;;;3.60;99.90;;;;;;5026434;28;20225;-75
2021/11/28 08:23:13;;;;;;;2.95;2.72;;;3.60;99.90;;;;;;5032607;28;20234;-75
2021/11/28 08:25:40;;;;;;;3.08;2.72;;;3.60;99.90;;;;;;5035273;28;20227;-75
2021/11/28 08:28:08;;;;;;;2.95;2.85;;;3.60;99.90;;;;;;5028308;28;20222;-76
2021/11/28 08:30:37;;;;;;;3.30;3.20;;;3.60;99.90;;;;;;5026491;28;20251;-76
2021/11/28 08:33:06;;;;;;;3.60;3.40;;;3.60;99.90;;;;;;5029852;28;20234;-75
2021/11/28 08:35:34;;;;;;;3.30;3.20;;;3.60;99.90;;;;;;5028202;28;20225;-75
2021/11/28 08:38:04;;;;;;;3.10;3.00;;;3.70;99.90;;;;;;5028512;28;20223;-75
2021/11/28 08:40:31;;;;;;;2.95;2.85;;;3.70;99.90;;;;;;5027883;28;20231;-75
2021/11/28 08:42:59;;;;;;;3.05;2.85;;;3.70;99.90;;;;;;5028514;28;20218;-75
2021/11/28 08:45:26;;;;;;;3.17;2.97;;;3.70;99.90;;;;;;5026571;28;20230;-75
2021/11/28 08:47:53;;;;;;;2.97;2.80;;;3.60;99.90;;;;;;5027744;28;20345;-75
2021/11/28 08:50:21;;;;;;;3.05;2.95;;;3.70;99.90;;;;;;5023652;28;20222;-75
2021/11/28 08:52:48;;;;;;;3.00;2.83;;;3.80;99.90;;;;;;5031707;28;20258;-75
2021/11/28 08:55:19;;;;;;;3.13;3.03;;;3.90;99.90;;;;;;5028119;28;21152;-75
2021/11/28 08:57:47;;;;;;;3.08;2.88;;;4.30;99.90;;;;;;5032296;28;20229;-76
2021/11/28 09:00:16;;;;;;;3.00;2.80;;;5.40;99.90;;;;;;5031450;28;20250;-76
2021/11/28 09:02:44;;;;;;;3.03;2.75;;;6.40;99.90;;;;;;5034419;28;20596;-75
2021/11/28 09:05:12;;;;;;;2.88;2.70;;;7.30;99.90;;;;;;5031733;28;20308;-76
2021/11/28 09:07:40;;;;;;;2.47;2.38;;;7.40;99.90;;;;;;5015687;28;20222;-76
2021/11/28 09:10:07;;;;;;;2.25;2.15;;;7.40;99.90;;;;;;5032004;28;20712;-76
2021/11/28 09:12:36;;;;;;;2.20;2.10;;;7.50;99.90;;;;;;5027163;28;20242;-76
2021/11/28 09:15:03;;;;;;;3.25;3.05;;;7.80;99.90;;;;;;5036048;28;20218;-76
2021/11/28 09:17:30;;;;;;;3.05;2.85;;;9.80;99.90;;;;;;5027890;28;20696;-76
2021/11/28 09:20:01;;;;;;;2.20;2.10;;;11.40;99.90;;;;;;5029147;28;20215;-76
2021/11/28 09:24:24;;;;;;;3.10;3.00;;;13.70;99.90;;;;;;5029230;28;20356;-76
2021/11/28 09:25:22;;;;;;;3.10;2.90;;;16.20;99.90;;;;;;5029677;28;20590;-76
2021/11/28 09:27:53;;;;;;;2.40;2.30;;;17.90;99.90;;;;;;5034568;28;20233;-78
2021/11/28 09:30:23;;;;;;;2.42;2.33;;;19.00;99.90;;;;;;5031714;28;20231;-79
2021/11/28 09:32:51;;;;;;;3.03;2.45;;;19.70;99.90;;;;;;5032076;28;20700;-81
2021/11/28 09:35:18;;;;;;;2.72;2.53;;;20.10;99.90;;;;;;5030995;28;20226;-83
2021/11/28 09:37:46;;;;;;;2.17;2.08;;;18.50;99.90;;;;;;5033341;28;20234;-79
2021/11/28 09:40:13;;;;;;;2.70;2.60;;;17.10;99.90;;;;;;5033113;28;20238;-82
2021/11/28 09:42:45;;;;;;;2.08;1.98;;;15.90;99.90;;;;;;5032456;28;20218;-83
2021/11/28 09:45:14;;;;;;;2.15;1.98;;;14.70;99.90;;;;;;5027936;28;20965;-78
2021/11/28 09:47:42;;;;;;;2.20;2.10;;;13.10;99.90;;;;;;5028504;28;20226;-84
2021/11/28 09:50:10;;;;;;;2.67;2.47;;;11.10;99.90;;;;;;5027536;28;21061;-81
2021/11/28 09:52:38;;;;;;;2.80;2.60;;;9.50;99.90;;;;;;5032081;28;20231;-83
2021/11/28 09:55:10;;;;;;;2.60;2.40;;;8.30;99.90;;;;;;5031253;28;22006;-79
2021/11/28 09:57:39;;;;;;;2.47;2.28;;;7.50;99.90;;;;;;5032928;28;20353;-78
2021/11/28 10:00:09;;;;;;;2.95;2.35;;;7.10;99.90;;;;;;5029702;28;20230;-78
2021/11/28 10:02:38;;;;;;;1.85;1.67;;;6.80;99.90;;;;;;5035483;28;20238;-75
2021/11/28 10:05:07;;;;;;;2.40;2.20;;;6.50;99.90;;;;;;5030446;28;20238;-75
2021/11/28 10:07:34;;;;;;;2.00;1.90;;;6.20;99.90;;;;;;5025837;28;20226;-75
2021/11/28 10:10:02;;;;;;;2.45;2.35;;;5.90;99.90;;;;;;5026075;28;20740;-76
2021/11/28 10:12:31;;;;;;;2.58;2.38;;;5.50;99.90;;;;;;5028706;28;20231;-77
2021/11/28 10:15:00;;;;;;;2.30;2.20;;;5.40;99.90;;;;;;5033275;28;20226;-76
2021/11/28 10:17:30;;;;;;;2.53;2.42;;;5.30;99.90;;;;;;5027896;28;20227;-77
2021/11/28 10:20:00;;;;;;;2.40;2.30;;;5.30;99.90;;;;;;5027674;28;20225;-77
2021/11/28 10:22:29;;;;;;;2.60;2.40;;;5.20;99.90;;;;;;5024349;28;20222;-77
2021/11/28 10:25:03;;;;;;;2.25;2.15;;;5.20;99.90;;;;;;5026907;28;20227;-77
2021/11/28 10:27:37;;;;;;;2.83;2.65;;;5.20;99.90;;;;;;5027755;28;20237;-77
2021/11/28 10:30:07;;;;;;;2.40;2.30;;;5.20;99.90;;;;;;5030075;28;20245;-77
2021/11/28 10:32:34;;;;;;;3.50;3.20;;;5.20;99.90;;;;;;5033277;28;20227;-77
2021/11/28 10:35:09;;;;;;;2.80;2.60;;;5.20;99.90;;;;;;5005443;28;20485;-77
2021/11/28 10:37:40;;;;;;;2.78;2.67;;;5.30;99.90;;;;;;5044406;28;21237;-77
2021/11/28 10:40:09;;;;;;;2.80;2.70;;;5.30;99.90;;;;;;5029529;28;20222;-77
2021/11/28 10:42:38;;;;;;;2.40;2.30;;;5.20;99.90;;;;;;5032301;28;20246;-77
2021/11/28 10:45:08;;;;;;;2.40;2.30;;;5.20;99.90;;;;;;5026654;28;20230;-77
2021/11/28 10:47:44;;;;;;;2.78;2.67;;;5.10;99.90;;;;;;5034364;28;20230;-77
2021/11/28 10:50:22;;;;;;;2.60;2.50;;;5.00;99.90;;;;;;5024670;28;20238;-77
2021/11/28 10:52:52;;;;;;;2.60;2.40;;;5.10;99.90;;;;;;5027530;28;20225;-77
2021/11/28 10:55:25;;;;;;;2.40;2.30;;;5.10;99.90;;;;;;5028257;28;20436;-77
2021/11/28 10:58:07;;;;;;;2.42;2.33;;;5.10;99.90;;;;;;5034646;28;20688;-77
2021/11/28 11:00:35;;;;;;;2.35;2.25;;;5.10;99.90;;;;;;5031544;28;20226;-77
2021/11/28 11:03:14;;;;;;;2.72;2.55;;;5.00;99.90;;;;;;5028516;28;20716;-77
2021/11/28 11:05:43;;;;;;;2.58;2.47;;;5.00;99.90;;;;;;5032715;28;20708;-77
2021/11/28 11:08:15;;;;;;;2.60;2.40;;;4.90;99.90;;;;;;5034478;28;20630;-77
2021/11/28 11:10:43;;;;;;;2.70;2.60;;;4.90;99.90;;;;;;5031845;28;20306;-77
2021/11/28 11:13:14;;;;;;;2.63;2.53;;;4.80;99.90;;;;;;5028654;28;20262;-78
2021/11/28 11:15:44;;;;;;;2.45;2.35;;;4.80;99.90;;;;;;5025757;28;20219;-77
2021/11/28 11:18:12;;;;;;;2.53;2.42;;;4.70;99.90;;;;;;5026779;28;20600;-77
2021/11/28 11:20:43;;;;;;;2.97;2.78;;;4.80;99.90;;;;;;5015118;28;21167;-77
2021/11/28 11:23:33;;;;;;;3.05;2.85;;;4.80;99.90;;;;;;5031111;28;20230;-77
2021/11/28 11:26:13;;;;;;;3.05;2.85;;;4.80;99.90;;;;;;5029854;28;20211;-77
2021/11/28 11:29:06;;;;;;;2.83;2.72;;;4.80;99.90;;;;;;5032890;28;20868;-77
2021/11/28 11:31:33;;;;;;;2.70;2.60;;;4.80;99.90;;;;;;5032486;28;20215;-76
2021/11/28 11:34:00;;;;;;;2.80;2.70;;;4.90;99.90;;;;;;5029732;28;20569;-77
2021/11/28 11:36:53;;;;;;;4.22;3.92;;;4.90;99.90;;;;;;5029691;28;20215;-77
2021/11/28 11:39:21;;;;;;;4.10;3.80;;;4.80;99.90;;;;;;5027857;28;20306;-77
2021/11/28 11:41:48;;;;;;;3.72;3.53;;;4.60;99.90;;;;;;5030557;28;20223;-77
2021/11/28 11:44:17;;;;;;;3.85;3.55;;;4.50;99.90;;;;;;5028957;28;20227;-77
2021/11/28 11:46:46;;;;;;;3.42;3.22;;;4.40;99.90;;;;;;5025101;28;20223;-77
2021/11/28 11:49:14;;;;;;;2.75;2.55;;;4.40;99.90;;;;;;5028310;28;20226;-77
2021/11/28 11:51:42;;;;;;;3.15;2.95;;;4.50;99.90;;;;;;5027540;28;20246;-77
2021/11/28 11:54:18;;;;;;;2.95;2.75;;;4.40;99.90;;;;;;5026763;28;20231;-77
2021/11/28 11:56:47;;;;;;;2.92;2.83;;;4.10;99.90;;;;;;5028007;28;20222;-77
2021/11/28 11:59:24;;;;;;;2.33;2.22;;;4.00;99.90;;;;;;5069822;23;20211;-75
2021/11/28 12:02:01;;;;;;;2.20;2.10;;;3.90;99.90;;;;;;4972446;28;20756;-74
2021/11/28 12:04:41;;;;;;;2.20;2.10;;;3.90;99.90;;;;;;4971826;28;20231;-74
2021/11/28 12:07:09;;;;;;;2.40;2.30;;;3.90;99.90;;;;;;4987363;28;20275;-74
2021/11/28 12:09:41;;;;;;;2.47;2.38;;;3.90;99.90;;;;;;4987946;28;20219;-76
2021/11/28 12:12:10;;;;;;;2.10;2.00;;;3.90;99.90;;;;;;5002276;28;20232;-74
2021/11/28 12:14:38;;;;;;;2.60;2.50;;;3.90;99.90;;;;;;4997972;28;20234;-76
2021/11/28 12:17:49;;;;;;;2.42;2.33;;;3.80;99.90;;;;;;5001077;28;20223;-77
2021/11/28 12:20:16;;;;;;;2.65;2.55;;;3.70;99.90;;;;;;4987656;28;20227;-75
2021/11/28 12:22:45;;;;;;;2.92;2.78;;;3.60;99.90;;;;;;5013445;28;20230;-74
2021/11/28 12:25:39;;;;;;;2.53;2.42;;;3.50;99.90;;;;;;5008460;28;20219;-73
2021/11/28 12:28:29;;;;;;;2.65;2.55;;;3.40;99.90;;;;;;5007691;28;20306;-74
2021/11/28 12:30:58;;;;;;;2.63;2.50;;;3.40;99.90;;;;;;5010499;28;20670;-76
2021/11/28 12:33:58;;;;;;;2.90;2.80;;;3.30;99.90;;;;;;5008872;28;20298;-74
2021/11/28 12:36:42;;;;;;;2.20;2.10;;;3.30;99.90;;;;;;5008014;28;20232;-75
2021/11/28 12:39:11;;;;;;;2.88;2.78;;;3.40;99.90;;;;;;5005387;28;20462;-74
2021/11/28 12:42:02;;;;;;;3.00;2.80;;;3.50;99.90;;;;;;5009101;28;20746;-75
2021/11/28 12:44:32;;;;;;;3.40;3.20;;;3.60;99.90;;;;;;5012141;28;20248;-75
2021/11/28 12:47:01;;;;;;;3.80;3.50;;;3.60;99.90;;;;;;5020414;28;20228;-75
2021/11/28 12:49:32;;;;;;;3.53;3.00;;;3.80;99.90;;;;;;5005228;28;20215;-75
2021/11/28 12:52:45;;;;;;;3.25;2.95;;;3.90;99.90;;;;;;5013493;28;20223;-73
2021/11/28 12:55:19;;;;;;;3.03;2.83;;;4.00;99.90;;;;;;5000287;28;20636;-76
2021/11/28 12:58:07;;;;;;;3.30;3.10;;;4.10;99.90;;;;;;5001430;28;20216;-74
2021/11/28 13:00:37;;;;;;;3.53;3.33;;;4.10;99.90;;;;;;4999536;28;20441;-74
2021/11/28 13:03:20;;;;;;;3.58;3.38;;;4.00;99.90;;;;;;5007089;28;20223;-73
2021/11/28 13:05:48;;;;;;;3.85;3.55;;;3.90;99.90;;;;;;4996478;28;20621;-74
2021/11/28 13:08:38;;;;;;;2.95;2.78;;;3.80;99.90;;;;;;5003376;28;20242;-75
2021/11/28 13:11:13;;;;;;;2.95;2.85;;;3.80;99.90;;;;;;5006000;28;20231;-74
2021/11/28 13:13:45;;;;;;;3.50;3.30;;;3.80;99.90;;;;;;5004908;28;20220;-74